PWSweather.com
Personal Weather Stations
Station Observations
KWIPARKF
Flambeau River State Forest, Park Falls, WI 54552

Flambeau River State ForestPark Falls, WI 54552

Lat: 45.81943, Lon: -90.61676

Elevation: 1476

Station Type: Davis Vantage Pro2 Plus

www.flambeauforestweather.com

High Low Average
Temperature 29.7°F-1.3°C 10.6°F-11.9°C 22.4°F-5.3°C
Dew Point 16.7°F-8.5°C 6.5°F-14.2°C 13.5°F-10.3°C
Winds 3.5 mph 5.6 kmh Calm Calm Calm WNWCalm WNW
Wind Gusts 12.7 mph20.4 kmh -- 1.0 mph1.6 kmh
Humidity 83% 55% 69%
Pressure 30.39 in1029.1 mb 30.23 in1023.7 mb -
Precipitation 0.00 in0.0 mm - -
Hour Temp Dew Point Humidity Winds Wind Gusts Pressure Precip Precip Rate Daily Precip Total
12:00 AM 28.5°F-1.9°C 18.2°F-7.7°C 65% 4.6 mph N7.4 kmh N 11.5 mph18.5 kmh 30.28 in1025.4 mb - 0.00 in0.0 mm 0.00 in0.0 mm
12:10 AM 28.3°F-2.1°C 18.0°F-7.8°C 65% 5.8 mph NNE9.3 kmh NNE 8.1 mph13.0 kmh 30.28 in1025.4 mb - 0.00 in0.0 mm 0.00 in0.0 mm
12:20 AM 28.1°F-2.2°C 18.2°F-7.7°C 66% 3.5 mph N5.6 kmh N 5.8 mph9.3 kmh 30.29 in1025.7 mb - 0.00 in0.0 mm 0.00 in0.0 mm
12:30 AM 28.0°F-2.2°C 17.0°F-8.3°C 63% 5.8 mph NNW9.3 kmh NNW 19.6 mph31.5 kmh 30.29 in1025.7 mb - 0.00 in0.0 mm 0.00 in0.0 mm
12:40 AM 27.9°F-2.3°C 16.9°F-8.4°C 63% 3.5 mph NNW5.6 kmh NNW 15.0 mph24.1 kmh 30.28 in1025.4 mb - 0.00 in0.0 mm 0.00 in0.0 mm
12:50 AM 27.6°F-2.4°C 15.9°F-8.9°C 61% 6.9 mph 11.1 kmh 11.5 mph18.5 kmh 30.29 in1025.7 mb - 0.00 in0.0 mm 0.00 in0.0 mm
01:00 AM 27.2°F-2.7°C 15.9°F-8.9°C 62% Calm Calm 11.5 mph18.5 kmh 30.29 in1025.7 mb - 0.00 in0.0 mm 0.00 in0.0 mm
01:10 AM 27.0°F-2.8°C 16.4°F-8.7°C 64% Calm Calm 1.2 mph1.9 kmh 30.29 in1025.7 mb - 0.00 in0.0 mm 0.00 in0.0 mm
01:20 AM 26.7°F-2.9°C 15.8°F-9.0°C 63% 3.5 mph N5.6 kmh N 12.7 mph20.4 kmh 30.30 in1026.1 mb - 0.00 in0.0 mm 0.00 in0.0 mm
01:30 AM 26.5°F-3.1°C 15.9°F-8.9°C 64% Calm Calm 2.3 mph3.7 kmh 30.30 in1026.1 mb - 0.00 in0.0 mm 0.00 in0.0 mm
01:40 AM 26.1°F-3.3°C 15.6°F-9.1°C 64% Calm Calm -- 30.30 in1026.1 mb - 0.00 in0.0 mm 0.00 in0.0 mm
01:50 AM 25.7°F-3.5°C 15.2°F-9.3°C 64% 1.2 mph N1.9 kmh N 1.2 mph1.9 kmh 30.30 in1026.1 mb - 0.00 in0.0 mm 0.00 in0.0 mm
02:00 AM 25.3°F-3.7°C 15.2°F-9.3°C 65% Calm Calm -- 30.30 in1026.1 mb - 0.00 in0.0 mm 0.00 in0.0 mm
02:10 AM 25.0°F-3.9°C 15.2°F-9.3°C 66% 2.3 mph NNW3.7 kmh NNW 4.6 mph7.4 kmh 30.30 in1026.1 mb - 0.00 in0.0 mm 0.00 in0.0 mm
02:20 AM 24.7°F-4.1°C 14.9°F-9.5°C 66% Calm Calm -- 30.30 in1026.1 mb - 0.00 in0.0 mm 0.00 in0.0 mm
02:30 AM 24.6°F-4.1°C 14.9°F-9.5°C 66% Calm Calm -- 30.30 in1026.1 mb - 0.00 in0.0 mm 0.00 in0.0 mm
02:40 AM 24.4°F-4.2°C 15.1°F-9.4°C 67% Calm Calm -- 30.30 in1026.1 mb - 0.00 in0.0 mm 0.00 in0.0 mm
02:50 AM 24.3°F-4.3°C 14.9°F-9.5°C 67% Calm Calm -- 30.30 in1026.1 mb - 0.00 in0.0 mm 0.00 in0.0 mm
03:00 AM 24.0°F-4.4°C 15.0°F-9.4°C 68% Calm Calm -- 30.30 in1026.1 mb - 0.00 in0.0 mm 0.00 in0.0 mm
03:10 AM 23.6°F-4.7°C 14.6°F-9.7°C 68% Calm Calm -- 30.30 in1026.1 mb - 0.00 in0.0 mm 0.00 in0.0 mm
03:20 AM 23.4°F-4.8°C 14.4°F-9.8°C 68% Calm Calm -- 30.30 in1026.1 mb - 0.00 in0.0 mm 0.00 in0.0 mm
03:30 AM 23.1°F-4.9°C 14.4°F-9.8°C 69% Calm Calm -- 30.30 in1026.1 mb - 0.00 in0.0 mm 0.00 in0.0 mm
03:40 AM 22.8°F-5.1°C 14.2°F-9.9°C 69% Calm Calm -- 30.30 in1026.1 mb - 0.00 in0.0 mm 0.00 in0.0 mm
03:50 AM 22.6°F-5.2°C 14.3°F-9.8°C 70% Calm Calm -- 30.30 in1026.1 mb - 0.00 in0.0 mm 0.00 in0.0 mm
04:00 AM 22.4°F-5.3°C 14.5°F-9.7°C 71% Calm Calm -- 30.30 in1026.1 mb - 0.00 in0.0 mm 0.00 in0.0 mm
04:10 AM 22.3°F-5.4°C 14.3°F-9.8°C 71% Calm Calm -- 30.30 in1026.1 mb - 0.00 in0.0 mm 0.00 in0.0 mm
04:20 AM 22.1°F-5.5°C 14.1°F-9.9°C 71% Calm Calm -- 30.30 in1026.1 mb - 0.00 in0.0 mm 0.00 in0.0 mm
04:30 AM 21.9°F-5.6°C 13.9°F-10.1°C 71% Calm Calm -- 30.30 in1026.1 mb - 0.00 in0.0 mm 0.00 in0.0 mm
04:40 AM 21.7°F-5.7°C 13.7°F-10.2°C 71% Calm Calm -- 30.30 in1026.1 mb - 0.00 in0.0 mm 0.00 in0.0 mm
04:50 AM 21.5°F-5.8°C 13.5°F-10.3°C 71% Calm Calm -- 30.30 in1026.1 mb - 0.00 in0.0 mm 0.00 in0.0 mm
05:00 AM 21.3°F-5.9°C 13.7°F-10.2°C 72% Calm Calm -- 30.30 in1026.1 mb - 0.00 in0.0 mm 0.00 in0.0 mm
05:10 AM 21.2°F-6.0°C 13.6°F-10.2°C 72% Calm Calm -- 30.30 in1026.1 mb - 0.00 in0.0 mm 0.00 in0.0 mm
05:20 AM 21.0°F-6.1°C 13.4°F-10.3°C 72% Calm Calm -- 30.30 in1026.1 mb - 0.00 in0.0 mm 0.00 in0.0 mm
05:30 AM 20.8°F-6.2°C 13.2°F-10.4°C 72% Calm Calm -- 30.30 in1026.1 mb - 0.00 in0.0 mm 0.00 in0.0 mm
05:40 AM 20.6°F-6.3°C 13.0°F-10.6°C 72% Calm Calm 2.3 mph3.7 kmh 30.31 in1026.4 mb - 0.00 in0.0 mm 0.00 in0.0 mm
05:50 AM 20.4°F-6.4°C 12.8°F-10.7°C 72% 1.2 mph N1.9 kmh N -- 30.31 in1026.4 mb - 0.00 in0.0 mm 0.00 in0.0 mm
06:00 AM 20.2°F-6.6°C 12.6°F-10.8°C 72% Calm Calm 2.3 mph3.7 kmh 30.32 in1026.8 mb - 0.00 in0.0 mm 0.00 in0.0 mm
06:10 AM 19.9°F-6.7°C 12.6°F-10.8°C 73% Calm Calm -- 30.32 in1026.8 mb - 0.00 in0.0 mm 0.00 in0.0 mm
06:20 AM 19.7°F-6.8°C 12.8°F-10.7°C 74% Calm Calm 2.3 mph3.7 kmh 30.32 in1026.8 mb - 0.00 in0.0 mm 0.00 in0.0 mm
06:30 AM 19.4°F-7.0°C 12.8°F-10.7°C 75% Calm Calm -- 30.32 in1026.8 mb - 0.00 in0.0 mm 0.00 in0.0 mm
06:40 AM 19.2°F-7.1°C 12.6°F-10.8°C 75% Calm Calm -- 30.32 in1026.8 mb - 0.00 in0.0 mm 0.00 in0.0 mm
06:50 AM 19.0°F-7.2°C 12.7°F-10.7°C 76% 1.2 mph NW1.9 kmh NW 11.5 mph18.5 kmh 30.32 in1026.8 mb - 0.00 in0.0 mm 0.00 in0.0 mm
07:00 AM 18.9°F-7.3°C 12.9°F-10.6°C 77% Calm Calm 1.2 mph1.9 kmh 30.32 in1026.8 mb - 0.00 in0.0 mm 0.00 in0.0 mm
07:10 AM 18.8°F-7.3°C 12.8°F-10.7°C 77% Calm Calm -- 30.33 in1027.1 mb - 0.00 in0.0 mm 0.00 in0.0 mm
07:20 AM 18.6°F-7.4°C 12.9°F-10.6°C 78% Calm Calm 1.2 mph1.9 kmh 30.33 in1027.1 mb - 0.00 in0.0 mm 0.00 in0.0 mm
07:30 AM 18.5°F-7.5°C 13.1°F-10.5°C 79% Calm Calm -- 30.34 in1027.4 mb - 0.00 in0.0 mm 0.00 in0.0 mm
07:40 AM 18.7°F-7.4°C 13.5°F-10.3°C 80% Calm Calm -- 30.34 in1027.4 mb - 0.00 in0.0 mm 0.00 in0.0 mm
07:50 AM 18.9°F-7.3°C 13.7°F-10.2°C 80% Calm Calm 8.1 mph13.0 kmh 30.34 in1027.4 mb - 0.00 in0.0 mm 0.00 in0.0 mm
08:00 AM 19.2°F-7.1°C 14.3°F-9.8°C 81% Calm Calm -- 30.35 in1027.8 mb - 0.00 in0.0 mm 0.00 in0.0 mm
08:10 AM 19.5°F-6.9°C 14.6°F-9.7°C 81% Calm Calm 4.6 mph7.4 kmh 30.34 in1027.4 mb - 0.00 in0.0 mm 0.00 in0.0 mm
08:20 AM 19.9°F-6.7°C 14.7°F-9.6°C 80% Calm Calm -- 30.35 in1027.8 mb - 0.00 in0.0 mm 0.00 in0.0 mm
08:30 AM 19.9°F-6.7°C 14.5°F-9.7°C 79% Calm Calm 1.2 mph1.9 kmh 30.34 in1027.4 mb - 0.00 in0.0 mm 0.00 in0.0 mm
08:50 AM 19.7°F-6.8°C 13.7°F-10.2°C 77% Calm Calm 3.5 mph5.6 kmh 30.35 in1027.8 mb - 0.00 in0.0 mm 0.00 in0.0 mm
09:00 AM 20.0°F-6.7°C 13.7°F-10.2°C 76% Calm Calm -- 30.35 in1027.8 mb - 0.00 in0.0 mm 0.00 in0.0 mm
09:10 AM 20.5°F-6.4°C 14.1°F-9.9°C 76% Calm Calm -- 30.36 in1028.1 mb - 0.00 in0.0 mm 0.00 in0.0 mm
09:20 AM 21.5°F-5.8°C 14.8°F-9.6°C 75% Calm Calm -- 30.36 in1028.1 mb - 0.00 in0.0 mm 0.00 in0.0 mm
09:30 AM 21.9°F-5.6°C 14.6°F-9.7°C 73% 1.2 mph NNW1.9 kmh NNW 11.5 mph18.5 kmh 30.36 in1028.1 mb - 0.00 in0.0 mm 0.00 in0.0 mm
09:40 AM 21.8°F-5.7°C 14.8°F-9.6°C 74% 1.2 mph N1.9 kmh N 12.7 mph20.4 kmh 30.36 in1028.1 mb - 0.00 in0.0 mm 0.00 in0.0 mm
09:50 AM 22.0°F-5.6°C 14.0°F-10.0°C 71% Calm Calm 1.2 mph1.9 kmh 30.36 in1028.1 mb - 0.00 in0.0 mm 0.00 in0.0 mm
10:00 AM 22.8°F-5.1°C 14.5°F-9.7°C 70% Calm Calm -- 30.36 in1028.1 mb - 0.00 in0.0 mm 0.00 in0.0 mm
10:10 AM 23.3°F-4.8°C 14.9°F-9.5°C 70% Calm Calm 3.5 mph5.6 kmh 30.36 in1028.1 mb - 0.00 in0.0 mm 0.00 in0.0 mm
10:20 AM 23.5°F-4.7°C 15.8°F-9.0°C 72% Calm Calm 1.2 mph1.9 kmh 30.37 in1028.4 mb - 0.00 in0.0 mm 0.00 in0.0 mm
10:30 AM 23.9°F-4.5°C 15.8°F-9.0°C 71% 1.2 mph N1.9 kmh N 3.5 mph5.6 kmh 30.37 in1028.4 mb - 0.00 in0.0 mm 0.00 in0.0 mm
10:40 AM 23.4°F-4.8°C 15.7°F-9.1°C 72% Calm Calm -- 30.37 in1028.4 mb - 0.00 in0.0 mm 0.00 in0.0 mm
10:50 AM 23.0°F-5.0°C 15.7°F-9.1°C 73% 3.5 mph N5.6 kmh N 4.6 mph7.4 kmh 30.38 in1028.8 mb - 0.00 in0.0 mm 0.00 in0.0 mm
11:00 AM 23.2°F-4.9°C 15.9°F-8.9°C 73% 2.3 mph NW3.7 kmh NW 6.9 mph11.1 kmh 30.38 in1028.8 mb - 0.00 in0.0 mm 0.00 in0.0 mm
11:10 AM 22.8°F-5.1°C 15.7°F-9.1°C 74% 1.2 mph N1.9 kmh N 8.1 mph13.0 kmh 30.37 in1028.4 mb - 0.00 in0.0 mm 0.00 in0.0 mm
11:20 AM 23.1°F-4.9°C 15.7°F-9.1°C 73% Calm Calm -- 30.37 in1028.4 mb - 0.00 in0.0 mm 0.00 in0.0 mm
11:30 AM 23.1°F-4.9°C 15.0°F-9.4°C 71% Calm Calm 1.2 mph1.9 kmh 30.38 in1028.8 mb - 0.00 in0.0 mm 0.00 in0.0 mm
11:40 AM 24.7°F-4.1°C 16.0°F-8.9°C 69% Calm Calm -- 30.38 in1028.8 mb - 0.00 in0.0 mm 0.00 in0.0 mm
11:50 AM 24.4°F-4.2°C 15.7°F-9.1°C 69% Calm Calm 1.2 mph1.9 kmh 30.38 in1028.8 mb - 0.00 in0.0 mm 0.00 in0.0 mm
12:00 PM 24.6°F-4.1°C 15.5°F-9.2°C 68% Calm Calm -- 30.38 in1028.8 mb - 0.00 in0.0 mm 0.00 in0.0 mm
12:10 PM 24.8°F-4.0°C 15.4°F-9.2°C 67% Calm Calm -- 30.38 in1028.8 mb - 0.00 in0.0 mm 0.00 in0.0 mm
12:20 PM 24.0°F-4.4°C 14.9°F-9.5°C 68% Calm Calm 2.3 mph3.7 kmh 30.38 in1028.8 mb - 0.00 in0.0 mm 0.00 in0.0 mm
12:30 PM 24.6°F-4.1°C 16.2°F-8.8°C 70% Calm Calm -- 30.39 in1029.1 mb - 0.00 in0.0 mm 0.00 in0.0 mm
12:40 PM 25.5°F-3.6°C 16.1°F-8.8°C 67% Calm Calm 3.5 mph5.6 kmh 30.38 in1028.8 mb - 0.00 in0.0 mm 0.00 in0.0 mm
12:50 PM 25.8°F-3.4°C 15.7°F-9.1°C 65% Calm Calm 2.3 mph3.7 kmh 30.39 in1029.1 mb - 0.00 in0.0 mm 0.00 in0.0 mm
01:00 PM 26.6°F-3.0°C 16.7°F-8.5°C 66% Calm Calm 1.2 mph1.9 kmh 30.38 in1028.8 mb - 0.00 in0.0 mm 0.00 in0.0 mm
01:10 PM 26.3°F-3.2°C 15.7°F-9.1°C 64% Calm Calm 2.3 mph3.7 kmh 30.38 in1028.8 mb - 0.00 in0.0 mm 0.00 in0.0 mm
01:20 PM 26.5°F-3.1°C 15.6°F-9.1°C 63% 3.5 mph NW5.6 kmh NW 12.7 mph20.4 kmh 30.38 in1028.8 mb - 0.00 in0.0 mm 0.00 in0.0 mm
01:30 PM 27.0°F-2.8°C 15.3°F-9.3°C 61% Calm Calm 3.5 mph5.6 kmh 30.37 in1028.4 mb - 0.00 in0.0 mm 0.00 in0.0 mm
01:40 PM 27.3°F-2.6°C 15.6°F-9.1°C 61% 2.3 mph NW3.7 kmh NW 11.5 mph18.5 kmh 30.37 in1028.4 mb - 0.00 in0.0 mm 0.00 in0.0 mm
01:50 PM 27.1°F-2.7°C 15.4°F-9.2°C 61% Calm Calm 1.2 mph1.9 kmh 30.37 in1028.4 mb - 0.00 in0.0 mm 0.00 in0.0 mm
02:00 PM 27.6°F-2.4°C 15.9°F-8.9°C 61% Calm Calm -- 30.37 in1028.4 mb - 0.00 in0.0 mm 0.00 in0.0 mm
02:10 PM 27.3°F-2.6°C 15.6°F-9.1°C 61% 3.5 mph NW5.6 kmh NW 10.4 mph16.7 kmh 30.36 in1028.1 mb - 0.00 in0.0 mm 0.00 in0.0 mm
02:20 PM 28.0°F-2.2°C 15.9°F-8.9°C 60% Calm Calm 1.2 mph1.9 kmh 30.36 in1028.1 mb - 0.00 in0.0 mm 0.00 in0.0 mm
02:30 PM 28.7°F-1.8°C 15.7°F-9.1°C 58% Calm Calm -- 30.36 in1028.1 mb - 0.00 in0.0 mm 0.00 in0.0 mm
02:40 PM 28.7°F-1.8°C 15.0°F-9.4°C 56% Calm Calm -- 30.36 in1028.1 mb - 0.00 in0.0 mm 0.00 in0.0 mm
02:50 PM 28.8°F-1.8°C 15.5°F-9.2°C 57% 2.3 mph NW3.7 kmh NW -- 30.36 in1028.1 mb - 0.00 in0.0 mm 0.00 in0.0 mm
03:00 PM 28.6°F-1.9°C 15.7°F-9.1°C 58% Calm Calm -- 30.35 in1027.8 mb - 0.00 in0.0 mm 0.00 in0.0 mm
03:10 PM 29.2°F-1.6°C 15.9°F-8.9°C 57% Calm Calm -- 30.35 in1027.8 mb - 0.00 in0.0 mm 0.00 in0.0 mm
03:20 PM 28.3°F-2.1°C 15.4°F-9.2°C 58% Calm Calm 3.5 mph5.6 kmh 30.35 in1027.8 mb - 0.00 in0.0 mm 0.00 in0.0 mm
03:30 PM 28.5°F-1.9°C 15.2°F-9.3°C 57% Calm Calm 4.6 mph7.4 kmh 30.35 in1027.8 mb - 0.00 in0.0 mm 0.00 in0.0 mm
03:40 PM 28.6°F-1.9°C 14.8°F-9.6°C 56% Calm Calm -- 30.35 in1027.8 mb - 0.00 in0.0 mm 0.00 in0.0 mm
03:50 PM 28.6°F-1.9°C 14.5°F-9.7°C 55% Calm Calm -- 30.35 in1027.8 mb - 0.00 in0.0 mm 0.00 in0.0 mm
04:00 PM 28.5°F-1.9°C 15.2°F-9.3°C 57% Calm Calm -- 30.35 in1027.8 mb - 0.00 in0.0 mm 0.00 in0.0 mm
04:10 PM 29.2°F-1.6°C 16.3°F-8.7°C 58% Calm Calm 3.5 mph5.6 kmh 30.35 in1027.8 mb - 0.00 in0.0 mm 0.00 in0.0 mm
04:20 PM 29.5°F-1.4°C 15.7°F-9.1°C 56% Calm Calm 3.5 mph5.6 kmh 30.34 in1027.4 mb - 0.00 in0.0 mm 0.00 in0.0 mm
04:30 PM 29.7°F-1.3°C 16.7°F-8.5°C 58% Calm Calm -- 30.34 in1027.4 mb - 0.00 in0.0 mm 0.00 in0.0 mm
04:40 PM 29.6°F-1.3°C 16.2°F-8.8°C 57% Calm Calm -- 30.34 in1027.4 mb - 0.00 in0.0 mm 0.00 in0.0 mm
04:50 PM 28.9°F-1.7°C 15.1°F-9.4°C 56% Calm Calm -- 30.34 in1027.4 mb - 0.00 in0.0 mm 0.00 in0.0 mm
05:00 PM 29.5°F-1.4°C 15.3°F-9.3°C 55% Calm Calm -- 30.34 in1027.4 mb - 0.00 in0.0 mm 0.00 in0.0 mm
05:10 PM 29.2°F-1.6°C 15.8°F-9.0°C 57% Calm Calm -- 30.34 in1027.4 mb - 0.00 in0.0 mm 0.00 in0.0 mm
05:20 PM 29.3°F-1.5°C 15.5°F-9.2°C 56% Calm Calm -- 30.33 in1027.1 mb - 0.00 in0.0 mm 0.00 in0.0 mm
05:30 PM 29.5°F-1.4°C 15.3°F-9.3°C 55% Calm Calm -- 30.33 in1027.1 mb - 0.00 in0.0 mm 0.00 in0.0 mm
05:40 PM 29.0°F-1.7°C 15.2°F-9.3°C 56% Calm Calm -- 30.33 in1027.1 mb - 0.00 in0.0 mm 0.00 in0.0 mm
05:50 PM 28.9°F-1.7°C 15.2°F-9.3°C 56% Calm Calm -- 30.33 in1027.1 mb - 0.00 in0.0 mm 0.00 in0.0 mm
06:00 PM 29.0°F-1.7°C 14.9°F-9.5°C 55% Calm Calm -- 30.33 in1027.1 mb - 0.00 in0.0 mm 0.00 in0.0 mm
06:10 PM 28.7°F-1.8°C 14.6°F-9.7°C 55% Calm Calm -- 30.33 in1027.1 mb - 0.00 in0.0 mm 0.00 in0.0 mm
06:20 PM 28.0°F-2.2°C 14.7°F-9.6°C 57% Calm Calm -- 30.33 in1027.1 mb - 0.00 in0.0 mm 0.00 in0.0 mm
06:30 PM 27.7°F-2.4°C 14.4°F-9.8°C 57% Calm Calm -- 30.32 in1026.8 mb - 0.00 in0.0 mm 0.00 in0.0 mm
06:40 PM 27.1°F-2.7°C 13.9°F-10.1°C 57% Calm Calm -- 30.32 in1026.8 mb - 0.00 in0.0 mm 0.00 in0.0 mm
06:50 PM 26.5°F-3.1°C 13.7°F-10.2°C 58% Calm Calm -- 30.32 in1026.8 mb - 0.00 in0.0 mm 0.00 in0.0 mm
07:00 PM 25.9°F-3.4°C 13.2°F-10.4°C 58% Calm Calm -- 30.32 in1026.8 mb - 0.00 in0.0 mm 0.00 in0.0 mm
07:10 PM 25.1°F-3.8°C 14.6°F-9.7°C 64% Calm Calm -- 30.32 in1026.8 mb - 0.00 in0.0 mm 0.00 in0.0 mm
07:20 PM 24.5°F-4.2°C 13.6°F-10.2°C 63% Calm Calm -- 30.32 in1026.8 mb - 0.00 in0.0 mm 0.00 in0.0 mm
07:30 PM 23.6°F-4.7°C 13.2°F-10.4°C 64% Calm Calm -- 30.32 in1026.8 mb - 0.00 in0.0 mm 0.00 in0.0 mm
07:40 PM 22.6°F-5.2°C 13.6°F-10.2°C 68% Calm Calm -- 30.32 in1026.8 mb - 0.00 in0.0 mm 0.00 in0.0 mm
07:50 PM 21.7°F-5.7°C 13.1°F-10.5°C 69% Calm Calm -- 30.31 in1026.4 mb - 0.00 in0.0 mm 0.00 in0.0 mm
08:00 PM 20.7°F-6.3°C 12.8°F-10.7°C 71% Calm Calm -- 30.31 in1026.4 mb - 0.00 in0.0 mm 0.00 in0.0 mm
08:10 PM 19.8°F-6.8°C 12.0°F-11.1°C 71% Calm Calm -- 30.31 in1026.4 mb - 0.00 in0.0 mm 0.00 in0.0 mm
08:20 PM 19.3°F-7.1°C 11.7°F-11.3°C 72% Calm Calm -- 30.31 in1026.4 mb - 0.00 in0.0 mm 0.00 in0.0 mm
08:30 PM 18.8°F-7.3°C 11.9°F-11.2°C 74% Calm Calm -- 30.30 in1026.1 mb - 0.00 in0.0 mm 0.00 in0.0 mm
08:40 PM 18.7°F-7.4°C 11.5°F-11.4°C 73% Calm Calm -- 30.30 in1026.1 mb - 0.00 in0.0 mm 0.00 in0.0 mm
08:50 PM 18.6°F-7.4°C 11.1°F-11.6°C 72% Calm Calm -- 30.30 in1026.1 mb - 0.00 in0.0 mm 0.00 in0.0 mm
09:00 PM 18.4°F-7.6°C 10.8°F-11.8°C 72% Calm Calm -- 30.30 in1026.1 mb - 0.00 in0.0 mm 0.00 in0.0 mm
09:10 PM 18.0°F-7.8°C 10.8°F-11.8°C 73% Calm Calm -- 30.29 in1025.7 mb - 0.00 in0.0 mm 0.00 in0.0 mm
09:20 PM 17.5°F-8.1°C 10.6°F-11.9°C 74% Calm Calm -- 30.29 in1025.7 mb - 0.00 in0.0 mm 0.00 in0.0 mm
09:30 PM 16.9°F-8.4°C 10.0°F-12.2°C 74% Calm Calm -- 30.29 in1025.7 mb - 0.00 in0.0 mm 0.00 in0.0 mm
09:40 PM 16.4°F-8.7°C 9.6°F-12.4°C 74% Calm Calm -- 30.29 in1025.7 mb - 0.00 in0.0 mm 0.00 in0.0 mm
09:50 PM 15.9°F-8.9°C 9.1°F-12.7°C 74% Calm Calm -- 30.28 in1025.4 mb - 0.00 in0.0 mm 0.00 in0.0 mm
10:00 PM 15.3°F-9.3°C 8.8°F-12.9°C 75% Calm Calm -- 30.28 in1025.4 mb - 0.00 in0.0 mm 0.00 in0.0 mm
10:10 PM 14.8°F-9.6°C 8.6°F-13.0°C 76% Calm Calm -- 30.28 in1025.4 mb - 0.00 in0.0 mm 0.00 in0.0 mm
10:20 PM 14.3°F-9.8°C 8.4°F-13.1°C 77% Calm Calm -- 30.27 in1025.1 mb - 0.00 in0.0 mm 0.00 in0.0 mm
10:30 PM 13.7°F-10.2°C 8.4°F-13.1°C 79% Calm Calm -- 30.27 in1025.1 mb - 0.00 in0.0 mm 0.00 in0.0 mm
10:40 PM 13.5°F-10.3°C 8.4°F-13.1°C 80% Calm Calm -- 30.27 in1025.1 mb - 0.00 in0.0 mm 0.00 in0.0 mm
10:50 PM 13.3°F-10.4°C 8.0°F-13.3°C 79% Calm Calm -- 30.26 in1024.7 mb - 0.00 in0.0 mm 0.00 in0.0 mm
11:00 PM 13.0°F-10.6°C 8.0°F-13.3°C 80% Calm Calm -- 30.26 in1024.7 mb - 0.00 in0.0 mm 0.00 in0.0 mm
11:10 PM 12.7°F-10.7°C 7.4°F-13.7°C 79% Calm Calm -- 30.26 in1024.7 mb - 0.00 in0.0 mm 0.00 in0.0 mm
11:20 PM 12.3°F-10.9°C 7.3°F-13.7°C 80% Calm Calm -- 30.26 in1024.7 mb - 0.00 in0.0 mm 0.00 in0.0 mm
11:30 PM 12.2°F-11.0°C 7.8°F-13.4°C 82% Calm Calm -- 30.25 in1024.4 mb - 0.00 in0.0 mm 0.00 in0.0 mm
11:40 PM 12.0°F-11.1°C 7.3°F-13.7°C 81% Calm Calm -- 30.25 in1024.4 mb - 0.00 in0.0 mm 0.00 in0.0 mm
11:50 PM 11.7°F-11.3°C 6.7°F-14.1°C 80% Calm Calm -- 30.25 in1024.4 mb - 0.00 in0.0 mm 0.00 in0.0 mm